Login to view products.
 
Saturday, May 18, 2024 (20:21 UTC)
Al Bateen Executive Airport
ICAO: OMAD
IATA: AZI
  • METAR OMAD 182000Z 31008KT CAVOK 31/22 Q1005 NOSIG=
  • TAF OMAD 181700Z 1818/2000 33012KT 8000 NSC PROB30 1822/1904 VRB02KT BECMG 1918/1920 24004KT=
20-- D:\Input Parser\Destinations\Final\17\OMAD_TAF.txt-- 18/05/2024-- 18/05/2024-- 3
Last Updated:
Wind Dir/Speed:
Temperature:
Rel. Humidity:
Pressure:
Visibility: